Buckfield, Maine
Current Conditions -  °F | °C
As of 1:35 PM on Friday 28 Nov 2014 (Local Time) from KLEW Reporting Station
Broken Clouds Broken Clouds  
Wind Chill: 23°   Ceiling: 4600
Heat Index: 28°   Visibility: 10mi
Dew Point: 19°   Wind: 5mph
Humidity: 69%   Direction: 320°NW
Pressure: 30"   Gusts: NA
Location:  44.29°N, 70.36°W
Report Text: KLEW 281835Z AUTO 32004KT 10SM FEW025 FEW036 BKN046 M02/M07 A3000 RMK AO1
Loading
Personal Weather Stations






























Interactive Weather Map New forecast layout! Learn more

10-Day Weather Forecast

Advertisements
Track Severe Weather on mobile